KDTW/DTW METAR and TAF weather

Enter ICAO airport designator
Station Type Date Time Source
KDTW METAR 2020/02/16 19:53 UTC NOAA

KDTW 161953Z 25008KT 7SM SCT160 BKN230 04/M03 A3006 RMK AO2 SLP185 T00441033


Station Type Date Time Source
KDTW Decoded METAR 2020/02/16 19:53 UTC NOAA

DETROIT METROPOLITAN, MI, United States (KDTW) 42-14N 83-20W 195M
Feb 16, 2020 - 02:53 PM EST / 2020.02.16 1953 UTC
Wind: from the WSW (250 degrees) at 9 MPH (8 KT):0
Visibility: 7 mile(s):0
Sky conditions: mostly cloudy
Temperature: 39.9 F (4.4 C)
Dew Point: 26.1 F (-3.3 C)
Relative Humidity: 57%
Pressure (altimeter): 30.06 in. Hg (1017 hPa)
ob: KDTW 161953Z 25008KT 7SM SCT160 BKN230 04/M03 A3006 RMK AO2 SLP185 T00441033
cycle: 20

Station Type Date Time Source
KDTW TAF 2020/02/16 18:22 UTC NOAA

TAF KDTW 161720Z 1618/1724 26007KT P6SM SCT025 BKN200
FM162100 27006KT P6SM FEW025 BKN060
FM170200 31004KT P6SM SCT060 SCT100
FM171000 06004KT P6SM BKN100
FM171500 11007KT P6SM SCT020 BKN150

Example: see airport list